GRZ519 Details

Departure: Edmonton International Airport (CYEG)
Arrival: Denver International Airport (KDEN)
Route: OMROD TOVIS YEA BIL OPPEE MOLTN3


Current Weather Information
CYEG 230900Z 29018G26KT 20SM -SN SCT025 OVC070 02/M02 A3008 RMK SC3AC5 SLP215
KDEN 230853Z 32009KT 10SM FEW110 FEW220 11/M04 A2994 RMK AO2 SLP088 T01061044 57001